Time;durP1;ratioP1;P1;durP2;ratioP2;P2;SDS_P1;SDS_P2;PMS_P1;PMS_P2;Temp;Humidity;BMP_temperature;BMP_pressure;BME280_temperature;BME280_humidity;BME280_pressure;Samples;Min_cycle;Max_cycle;Signal;HPM_P1;HPM_P2
2022/06/08 00:00:13;;;;;;;10.52;5.50;;;22.30;56.60;;;;;;5010142;28;20288;-68
2022/06/08 00:02:41;;;;;;;9.02;5.28;;;22.20;56.60;;;;;;5009947;28;20255;-67
2022/06/08 00:05:10;;;;;;;7.43;4.93;;;22.20;56.60;;;;;;5010071;28;20203;-67
2022/06/08 00:07:37;;;;;;;8.25;5.00;;;22.20;56.60;;;;;;5009889;28;20205;-66
2022/06/08 00:10:05;;;;;;;9.32;5.25;;;22.20;56.70;;;;;;5009924;28;20240;-67
2022/06/08 00:12:32;;;;;;;8.23;5.28;;;22.20;56.80;;;;;;4994928;28;20194;-67
2022/06/08 00:14:59;;;;;;;7.85;4.35;;;22.20;56.70;;;;;;5009823;28;20256;-67
2022/06/08 00:17:26;;;;;;;8.30;4.80;;;22.20;56.70;;;;;;5009963;28;20225;-68
2022/06/08 00:19:54;;;;;;;8.85;4.80;;;22.20;56.60;;;;;;5010079;28;20592;-68
2022/06/08 00:22:23;;;;;;;8.27;4.90;;;22.20;56.70;;;;;;5010054;28;20582;-68
2022/06/08 00:24:50;;;;;;;9.85;4.88;;;22.10;56.60;;;;;;5009961;28;20197;-68
2022/06/08 00:27:17;;;;;;;8.18;5.10;;;22.10;56.70;;;;;;4994515;28;20189;-68
2022/06/08 00:29:44;;;;;;;6.63;4.43;;;22.10;56.80;;;;;;5009954;28;20221;-67
2022/06/08 00:32:12;;;;;;;7.93;4.60;;;22.10;56.90;;;;;;5009642;28;20202;-68
2022/06/08 00:34:39;;;;;;;6.32;4.15;;;22.10;56.70;;;;;;5009797;28;20578;-67
2022/06/08 00:37:06;;;;;;;6.68;4.50;;;22.10;56.90;;;;;;5009804;28;20301;-68
2022/06/08 00:39:35;;;;;;;7.85;4.40;;;22.10;56.80;;;;;;5009492;28;20256;-68
2022/06/08 00:42:03;;;;;;;7.15;4.47;;;22.10;56.90;;;;;;5009441;28;20296;-68
2022/06/08 00:44:34;;;;;;;7.38;4.18;;;22.10;56.90;;;;;;4994546;28;20272;-69
2022/06/08 00:47:02;;;;;;;5.68;4.10;;;22.10;56.90;;;;;;4994643;28;20192;-68
2022/06/08 00:49:32;;;;;;;6.03;3.67;;;22.10;56.90;;;;;;5009421;28;20221;-68
2022/06/08 00:52:00;;;;;;;6.93;4.47;;;22.10;56.90;;;;;;5009349;28;20659;-68
2022/06/08 00:54:30;;;;;;;5.30;3.95;;;22.00;56.90;;;;;;5009324;28;20666;-68
2022/06/08 00:57:00;;;;;;;5.07;3.53;;;22.00;56.90;;;;;;4994513;28;20189;-68
2022/06/08 00:59:27;;;;;;;5.97;3.78;;;22.00;56.90;;;;;;5009290;28;20641;-68
2022/06/08 01:01:54;;;;;;;6.78;4.05;;;22.00;56.90;;;;;;5009393;28;20224;-68
2022/06/08 01:04:24;;;;;;;5.75;4.13;;;22.00;56.90;;;;;;5009442;28;20232;-68
2022/06/08 01:06:56;;;;;;;6.68;4.03;;;22.00;56.90;;;;;;5008921;28;20228;-68
2022/06/08 01:09:28;;;;;;;5.30;3.47;;;22.00;56.90;;;;;;5009352;28;20224;-68
2022/06/08 01:11:59;;;;;;;5.35;3.58;;;22.00;56.90;;;;;;5009843;28;20220;-68
2022/06/08 01:14:26;;;;;;;5.30;3.90;;;22.00;56.90;;;;;;5009350;28;20196;-68
2022/06/08 01:16:57;;;;;;;7.22;3.63;;;22.00;57.00;;;;;;4994249;28;20196;-68
2022/06/08 01:19:24;;;;;;;5.75;3.55;;;22.00;56.90;;;;;;5009051;28;20221;-69
2022/06/08 01:21:58;;;;;;;4.38;3.38;;;22.00;56.90;;;;;;5009219;28;20271;-68
2022/06/08 01:24:35;;;;;;;4.60;3.55;;;22.00;57.00;;;;;;5009347;28;20201;-68
2022/06/08 01:27:22;;;;;;;4.30;3.17;;;22.00;57.00;;;;;;5009393;28;20197;-68
2022/06/08 01:29:58;;;;;;;5.22;3.10;;;21.90;56.90;;;;;;5009012;28;20217;-68
2022/06/08 01:32:32;;;;;;;4.95;3.15;;;22.00;57.10;;;;;;4994032;28;20235;-67
2022/06/08 01:35:19;;;;;;;5.55;3.30;;;22.00;57.00;;;;;;4994206;28;20566;-68
2022/06/08 01:37:55;;;;;;;4.70;3.08;;;21.90;57.00;;;;;;5009298;28;20194;-68
2022/06/08 01:40:43;;;;;;;4.65;2.83;;;22.00;57.10;;;;;;5009077;28;20210;-70
2022/06/08 01:43:18;;;;;;;4.20;3.17;;;21.90;56.90;;;;;;5009050;28;20204;-67
2022/06/08 01:45:52;;;;;;;4.53;3.30;;;22.00;57.10;;;;;;5009018;28;20280;-68
2022/06/08 01:55:17;;;;;;;4.88;3.08;;;21.90;57.00;;;;;;5012333;28;20236;-67
2022/06/08 01:57:52;;;;;;;4.25;3.05;;;21.90;57.10;;;;;;5029007;28;20291;-67
2022/06/08 02:00:21;;;;;;;4.18;2.90;;;21.90;57.00;;;;;;5028470;28;20212;-68
2022/06/08 02:02:58;;;;;;;4.30;3.08;;;21.90;57.00;;;;;;5028137;28;20224;-68
2022/06/08 02:05:30;;;;;;;4.00;2.47;;;21.90;57.00;;;;;;5028604;28;20574;-68
2022/06/08 02:08:05;;;;;;;3.90;2.90;;;21.90;56.90;;;;;;5028539;28;20248;-68
2022/06/08 02:10:34;;;;;;;4.18;2.70;;;21.90;56.90;;;;;;5011844;28;20618;-68
2022/06/08 02:13:06;;;;;;;4.15;2.80;;;21.90;56.90;;;;;;5011743;28;20216;-68
2022/06/08 02:15:38;;;;;;;4.22;2.70;;;21.90;56.80;;;;;;5011974;28;20569;-68
2022/06/08 02:18:07;;;;;;;3.80;2.58;;;21.90;56.70;;;;;;5028645;28;20296;-68
2022/06/08 02:20:43;;;;;;;4.35;2.55;;;21.90;56.70;;;;;;5031602;28;20649;-68
2022/06/08 02:23:13;;;;;;;2.83;2.38;;;21.90;56.70;;;;;;5031521;28;20304;-66
2022/06/08 02:25:43;;;;;;;3.33;2.35;;;21.90;57.30;;;;;;5031796;28;20577;-68
2022/06/08 02:28:13;;;;;;;2.97;2.67;;;21.90;56.70;;;;;;5031789;28;20301;-68
2022/06/08 02:30:44;;;;;;;2.65;2.38;;;21.90;56.70;;;;;;5015022;28;20192;-68
2022/06/08 02:36:02;;;;;;;3.20;2.40;;;21.90;56.70;;;;;;5031580;28;20703;-68
2022/06/08 02:38:33;;;;;;;2.85;2.22;;;21.90;56.70;;;;;;5015004;28;20197;-67
2022/06/08 02:41:01;;;;;;;2.55;2.30;;;21.90;56.70;;;;;;5015085;28;20720;-69
2022/06/08 02:43:32;;;;;;;2.78;2.40;;;21.90;56.70;;;;;;5031426;28;20240;-68
2022/06/08 02:46:04;;;;;;;4.18;2.33;;;21.80;56.60;;;;;;5031325;28;20196;-67
2022/06/08 02:48:31;;;;;;;3.28;2.60;;;21.90;56.80;;;;;;5014639;28;20201;-67
2022/06/08 02:50:59;;;;;;;2.88;2.25;;;21.80;56.50;;;;;;5014607;28;20197;-67
2022/06/08 02:53:44;;;;;;;4.00;2.30;;;21.90;56.70;;;;;;5014799;28;20217;-67
2022/06/08 02:56:14;;;;;;;3.25;2.50;;;21.80;56.60;;;;;;5014956;28;20279;-66
2022/06/08 02:58:46;;;;;;;2.60;2.40;;;21.80;56.70;;;;;;5015561;28;20200;-68
2022/06/08 03:01:18;;;;;;;3.35;2.30;;;21.80;56.60;;;;;;5031268;28;20209;-67
2022/06/08 03:03:47;;;;;;;2.33;2.13;;;21.80;56.70;;;;;;5014569;28;20217;-67
2022/06/08 03:06:17;;;;;;;2.30;2.10;;;21.80;56.60;;;;;;5031028;28;20231;-67
2022/06/08 03:08:49;;;;;;;2.38;2.15;;;21.80;56.50;;;;;;5014429;28;20193;-67
2022/06/08 03:11:17;;;;;;;3.17;2.20;;;21.70;56.60;;;;;;5014561;28;20200;-68
2022/06/08 03:13:49;;;;;;;2.70;2.25;;;21.70;56.70;;;;;;5031589;28;20213;-68
2022/06/08 03:16:25;;;;;;;3.47;2.00;;;21.70;56.70;;;;;;5030717;28;20193;-67
2022/06/08 03:18:54;;;;;;;2.40;1.98;;;21.70;56.80;;;;;;5030642;28;20574;-67
2022/06/08 03:21:21;;;;;;;2.92;2.17;;;21.70;56.80;;;;;;5030493;28;20247;-67
2022/06/08 03:23:49;;;;;;;2.30;2.10;;;21.70;56.80;;;;;;5030377;28;20220;-68
2022/06/08 03:26:18;;;;;;;2.63;1.80;;;21.80;56.90;;;;;;5014254;28;20223;-68
2022/06/08 03:28:48;;;;;;;2.42;1.80;;;21.80;56.70;;;;;;5013676;28;20292;-68
2022/06/08 03:31:16;;;;;;;2.05;1.85;;;21.80;56.80;;;;;;5030460;28;20189;-68
2022/06/08 03:33:44;;;;;;;2.05;1.85;;;21.90;56.70;;;;;;5030361;28;20217;-68
2022/06/08 03:36:13;;;;;;;2.30;1.80;;;21.90;56.50;;;;;;5030318;28;20201;-67
2022/06/08 03:38:43;;;;;;;1.88;1.60;;;22.00;56.20;;;;;;5013765;28;20201;-68
2022/06/08 03:41:12;;;;;;;3.00;1.63;;;22.00;56.20;;;;;;5013703;28;20632;-67
2022/06/08 03:43:39;;;;;;;1.77;1.63;;;22.00;56.20;;;;;;5013473;28;20245;-69
2022/06/08 03:46:08;;;;;;;1.88;1.70;;;22.00;56.20;;;;;;5030014;28;20288;-67
2022/06/08 03:48:35;;;;;;;2.05;1.77;;;22.00;56.20;;;;;;5013618;28;20200;-68
2022/06/08 03:51:03;;;;;;;2.00;1.80;;;22.00;56.00;;;;;;5013583;28;20567;-68
2022/06/08 03:53:33;;;;;;;1.80;1.70;;;22.00;55.90;;;;;;5029881;28;20216;-67
2022/06/08 03:56:02;;;;;;;2.05;1.75;;;22.10;56.00;;;;;;5013472;28;20185;-68
2022/06/08 03:58:29;;;;;;;2.00;1.80;;;22.00;56.00;;;;;;5013554;28;20780;-67
2022/06/08 04:00:57;;;;;;;1.85;1.73;;;22.10;56.00;;;;;;5029881;28;20217;-69
2022/06/08 04:03:25;;;;;;;2.25;1.75;;;22.10;55.80;;;;;;5029748;28;20697;-68
2022/06/08 04:05:52;;;;;;;1.80;1.70;;;22.10;55.80;;;;;;5013262;28;20200;-67
2022/06/08 04:08:25;;;;;;;3.15;1.70;;;22.10;55.80;;;;;;5013995;28;20188;-67
2022/06/08 04:10:55;;;;;;;2.03;1.60;;;22.20;55.80;;;;;;5030214;28;20596;-68
2022/06/08 04:13:23;;;;;;;2.55;1.63;;;22.20;55.70;;;;;;5029649;28;20217;-68
2022/06/08 04:15:54;;;;;;;2.22;1.50;;;22.20;55.70;;;;;;5029561;28;20189;-68
2022/06/08 04:18:30;;;;;;;1.98;1.45;;;22.20;55.40;;;;;;5013640;28;20197;-67
2022/06/08 04:21:02;;;;;;;1.55;1.45;;;22.30;55.50;;;;;;5029503;28;20279;-68
2022/06/08 04:23:37;;;;;;;2.05;1.83;;;22.30;55.50;;;;;;5030129;28;20213;-68
2022/06/08 04:26:05;;;;;;;2.03;1.50;;;22.30;55.20;;;;;;5012854;28;20303;-68
2022/06/08 04:28:32;;;;;;;1.58;1.45;;;22.30;55.20;;;;;;5012919;28;20252;-67
2022/06/08 04:31:04;;;;;;;2.08;1.67;;;22.40;55.20;;;;;;5030418;28;20235;-67
2022/06/08 04:33:36;;;;;;;2.33;1.60;;;22.40;55.20;;;;;;5029266;28;20312;-68
2022/06/08 04:36:05;;;;;;;1.63;1.52;;;22.40;55.00;;;;;;5012982;28;20212;-67
2022/06/08 04:38:33;;;;;;;1.67;1.58;;;22.40;55.00;;;;;;5012694;28;20271;-68
2022/06/08 04:41:00;;;;;;;1.88;1.75;;;22.50;54.90;;;;;;5028524;28;20189;-68
2022/06/08 04:43:29;;;;;;;2.55;1.67;;;22.50;55.20;;;;;;5012749;28;20216;-67
2022/06/08 04:45:58;;;;;;;3.47;1.90;;;22.60;54.70;;;;;;5029506;28;20235;-68
2022/06/08 04:48:27;;;;;;;4.18;1.80;;;22.60;54.50;;;;;;5029432;28;20250;-68
2022/06/08 04:50:55;;;;;;;2.05;1.85;;;22.60;54.80;;;;;;5012565;28;20207;-68
2022/06/08 04:53:23;;;;;;;3.88;1.77;;;22.50;54.50;;;;;;5028911;28;20255;-67
2022/06/08 04:55:51;;;;;;;2.10;1.83;;;22.50;54.50;;;;;;5012508;28;20291;-68
2022/06/08 04:58:20;;;;;;;2.08;1.70;;;22.50;54.60;;;;;;5028844;28;20212;-68
2022/06/08 05:00:48;;;;;;;2.83;1.80;;;22.50;54.70;;;;;;5012409;28;20211;-68
2022/06/08 05:03:15;;;;;;;2.17;1.90;;;22.50;54.70;;;;;;5028711;28;20224;-67
2022/06/08 05:05:42;;;;;;;2.53;1.88;;;22.50;54.70;;;;;;5012438;28;20266;-68
2022/06/08 05:08:16;;;;;;;4.45;2.10;;;22.50;54.70;;;;;;5029085;28;20188;-67
2022/06/08 05:10:46;;;;;;;2.22;1.88;;;22.50;54.90;;;;;;5012442;28;20197;-68
2022/06/08 05:13:17;;;;;;;4.32;1.90;;;22.40;55.00;;;;;;5012598;28;20323;-67
2022/06/08 05:15:48;;;;;;;4.50;1.80;;;22.40;55.20;;;;;;5029912;28;20623;-70
2022/06/08 05:18:16;;;;;;;3.70;1.70;;;22.40;55.00;;;;;;5028768;28;20215;-70
2022/06/08 05:20:44;;;;;;;2.17;1.52;;;22.40;54.90;;;;;;5012342;28;20665;-70
2022/06/08 05:23:16;;;;;;;2.85;1.55;;;22.50;54.90;;;;;;5012128;28;20228;-70
2022/06/08 05:25:43;;;;;;;1.70;1.60;;;22.60;54.70;;;;;;5013505;28;20193;-70
2022/06/08 05:28:13;;;;;;;2.13;1.50;;;22.70;54.60;;;;;;5012949;28;20197;-70
2022/06/08 05:30:49;;;;;;;3.22;1.60;;;22.90;54.40;;;;;;5028822;28;20197;-70
2022/06/08 05:33:17;;;;;;;1.88;1.77;;;23.00;54.10;;;;;;5012639;28;20295;-70
2022/06/08 05:35:45;;;;;;;1.67;1.48;;;23.20;53.80;;;;;;5028610;28;20197;-70
2022/06/08 05:38:16;;;;;;;1.65;1.50;;;23.40;53.40;;;;;;5013451;28;20193;-70
2022/06/08 05:40:43;;;;;;;2.38;1.42;;;23.50;53.00;;;;;;5028902;28;20247;-70
2022/06/08 05:43:14;;;;;;;1.65;1.55;;;23.60;53.30;;;;;;5028786;28;20724;-70
2022/06/08 05:45:46;;;;;;;2.13;1.52;;;23.70;52.60;;;;;;5028582;28;20665;-70
2022/06/08 05:48:13;;;;;;;2.42;1.40;;;23.80;52.30;;;;;;5028687;28;20556;-70
2022/06/08 05:50:41;;;;;;;1.63;1.40;;;23.90;52.10;;;;;;5011952;28;20577;-70
2022/06/08 05:53:12;;;;;;;1.80;1.55;;;24.00;51.90;;;;;;5014311;28;20216;-69
2022/06/08 05:55:41;;;;;;;3.80;1.50;;;24.10;51.80;;;;;;5015723;28;20197;-70
2022/06/08 05:58:09;;;;;;;6.97;1.55;;;24.20;51.80;;;;;;5032315;28;20251;-70
2022/06/08 06:00:38;;;;;;;2.10;1.30;;;24.20;51.80;;;;;;5015923;28;20209;-71
2022/06/08 06:03:07;;;;;;;1.40;1.30;;;24.10;51.90;;;;;;5032247;28;20228;-70
2022/06/08 06:05:35;;;;;;;2.67;1.60;;;24.10;51.80;;;;;;5032106;28;20673;-70
2022/06/08 06:08:07;;;;;;;1.40;1.30;;;24.00;51.90;;;;;;5032998;28;20188;-70
2022/06/08 06:10:37;;;;;;;1.70;1.42;;;24.00;52.00;;;;;;5015724;28;20192;-70
2022/06/08 06:13:06;;;;;;;2.17;1.10;;;24.00;52.00;;;;;;5032041;28;20232;-70
2022/06/08 06:15:51;;;;;;;1.30;1.20;;;24.10;51.90;;;;;;5031877;28;20199;-70
2022/06/08 06:18:19;;;;;;;1.20;1.10;;;24.20;51.80;;;;;;5033109;28;20204;-70
2022/06/08 06:20:55;;;;;;;1.10;1.10;;;24.30;51.60;;;;;;5032013;28;20196;-70
2022/06/08 06:23:32;;;;;;;1.30;1.20;;;24.50;51.40;;;;;;5015184;28;20312;-70
2022/06/08 06:26:14;;;;;;;1.48;1.27;;;24.60;51.00;;;;;;5015235;28;20669;-70
2022/06/08 06:28:54;;;;;;;1.30;1.20;;;24.80;50.60;;;;;;5031690;28;20583;-70
2022/06/08 06:31:38;;;;;;;2.00;1.25;;;24.90;50.50;;;;;;5015236;28;20204;-69
2022/06/08 06:34:11;;;;;;;1.40;1.05;;;25.00;50.30;;;;;;5015418;28;20263;-70
2022/06/08 06:36:38;;;;;;;1.10;1.10;;;25.00;50.10;;;;;;5015306;28;20196;-70
2022/06/08 06:39:05;;;;;;;1.15;1.13;;;25.00;50.00;;;;;;5032310;28;20201;-70
2022/06/08 06:41:36;;;;;;;2.75;1.20;;;25.10;50.00;;;;;;5015007;28;20197;-70
2022/06/08 06:44:05;;;;;;;1.30;1.20;;;25.10;49.90;;;;;;5016875;28;20208;-70
2022/06/08 06:46:37;;;;;;;1.90;1.20;;;25.10;49.80;;;;;;5031309;28;20197;-70
2022/06/08 06:49:10;;;;;;;1.77;1.23;;;25.00;49.80;;;;;;5016455;28;20622;-70
2022/06/08 06:51:38;;;;;;;1.30;1.20;;;25.00;49.90;;;;;;5015398;28;20204;-70
2022/06/08 06:54:08;;;;;;;1.00;1.00;;;25.10;50.00;;;;;;5031302;28;20270;-70
2022/06/08 06:56:36;;;;;;;2.10;1.10;;;25.10;49.90;;;;;;5030992;28;20715;-70
2022/06/08 06:59:09;;;;;;;2.17;1.30;;;25.10;49.80;;;;;;5014859;28;20207;-70
2022/06/08 07:01:36;;;;;;;1.08;0.98;;;25.10;49.80;;;;;;5014871;28;20193;-70
2022/06/08 07:04:03;;;;;;;1.38;1.27;;;25.10;49.80;;;;;;5013893;28;20728;-70
2022/06/08 07:06:31;;;;;;;1.20;1.10;;;25.10;49.80;;;;;;5015620;28;20197;-70
2022/06/08 07:09:00;;;;;;;1.23;1.13;;;25.10;49.80;;;;;;5031768;28;20290;-70
2022/06/08 07:11:35;;;;;;;1.73;1.17;;;25.20;49.80;;;;;;5014457;28;20699;-69
2022/06/08 07:14:14;;;;;;;1.38;1.27;;;25.20;49.80;;;;;;5014403;28;20303;-70
2022/06/08 07:16:41;;;;;;;1.52;1.10;;;25.20;49.80;;;;;;5014425;28;20730;-70
2022/06/08 07:19:09;;;;;;;1.50;1.20;;;25.20;49.60;;;;;;5014425;28;20203;-70
2022/06/08 07:21:36;;;;;;;1.33;1.10;;;25.20;49.60;;;;;;5014105;28;20197;-70
2022/06/08 07:24:04;;;;;;;1.10;1.10;;;25.30;49.50;;;;;;5030684;28;20232;-70
2022/06/08 07:26:31;;;;;;;1.20;1.10;;;25.30;49.50;;;;;;5015477;28;20185;-70
2022/06/08 07:28:58;;;;;;;1.27;1.10;;;25.20;49.40;;;;;;5017622;28;20200;-70
2022/06/08 07:31:26;;;;;;;1.08;1.00;;;25.20;49.60;;;;;;5019779;28;20257;-70
2022/06/08 07:33:53;;;;;;;2.22;1.17;;;25.20;49.60;;;;;;5020541;28;20212;-71
2022/06/08 07:36:21;;;;;;;1.00;1.00;;;25.20;49.60;;;;;;5014700;28;20200;-70
2022/06/08 07:38:48;;;;;;;2.13;1.30;;;25.20;49.60;;;;;;5032932;28;20200;-70
2022/06/08 07:41:15;;;;;;;1.05;1.05;;;25.20;49.70;;;;;;5031927;28;20196;-70
2022/06/08 07:43:42;;;;;;;1.15;1.02;;;25.20;49.70;;;;;;5014827;28;20213;-70
2022/06/08 07:46:09;;;;;;;2.45;1.20;;;25.20;49.70;;;;;;5013705;28;20579;-70
2022/06/08 07:51:22;;;;;;;1.70;1.30;;;25.40;49.20;;;;;;5030037;28;20192;-70
2022/06/08 07:53:49;;;;;;;1.42;1.17;;;25.60;48.70;;;;;;5015076;28;20204;-70
2022/06/08 07:56:17;;;;;;;1.25;1.15;;;25.80;48.30;;;;;;5013404;28;20208;-70
2022/06/08 07:58:44;;;;;;;1.30;1.20;;;26.00;47.80;;;;;;5013347;28;20231;-70
2022/06/08 08:01:11;;;;;;;1.20;1.10;;;26.20;47.40;;;;;;5030157;28;20204;-70
2022/06/08 08:03:39;;;;;;;1.60;1.00;;;26.30;47.00;;;;;;5013186;28;20220;-70
2022/06/08 08:06:09;;;;;;;1.30;1.17;;;26.50;46.70;;;;;;5013288;28;20200;-70
2022/06/08 08:08:36;;;;;;;1.20;1.10;;;26.50;46.50;;;;;;5013395;28;20254;-70
2022/06/08 08:11:04;;;;;;;1.27;1.00;;;26.50;46.50;;;;;;5029705;28;20204;-70
2022/06/08 08:13:31;;;;;;;1.00;0.95;;;26.50;46.50;;;;;;5014290;28;20209;-70
2022/06/08 08:15:58;;;;;;;1.30;1.20;;;26.50;46.50;;;;;;5012268;28;20200;-70
2022/06/08 08:18:25;;;;;;;1.17;1.08;;;26.50;46.40;;;;;;5029551;28;20839;-69
2022/06/08 08:20:54;;;;;;;1.27;1.02;;;26.60;46.20;;;;;;5029498;28;20201;-70
2022/06/08 08:23:21;;;;;;;1.30;1.20;;;26.70;46.00;;;;;;5012924;28;20224;-70
2022/06/08 08:25:48;;;;;;;2.63;1.10;;;26.80;45.80;;;;;;5029491;28;20196;-70
2022/06/08 08:28:15;;;;;;;1.10;1.00;;;26.90;45.50;;;;;;5012916;28;20196;-70
2022/06/08 08:30:42;;;;;;;1.30;1.20;;;27.00;45.20;;;;;;5014127;28;20185;-70
2022/06/08 08:33:09;;;;;;;1.25;1.20;;;27.10;45.00;;;;;;5013035;28;20212;-70
2022/06/08 08:35:36;;;;;;;1.17;1.10;;;27.20;45.10;;;;;;5012812;28;20199;-70
2022/06/08 08:38:05;;;;;;;1.30;1.20;;;27.30;44.90;;;;;;5012759;28;20677;-70
2022/06/08 08:40:46;;;;;;;1.33;1.23;;;27.30;44.70;;;;;;5013535;28;20196;-71
2022/06/08 08:43:15;;;;;;;1.52;1.20;;;27.40;44.60;;;;;;5029345;28;20223;-70
2022/06/08 08:45:52;;;;;;;1.27;1.20;;;27.50;44.50;;;;;;5012686;28;20647;-71
2022/06/08 08:48:25;;;;;;;1.48;1.00;;;27.50;44.40;;;;;;5029093;28;20196;-70
2022/06/08 08:50:54;;;;;;;1.95;1.10;;;27.60;44.30;;;;;;5029029;28;20634;-70
2022/06/08 08:53:24;;;;;;;1.10;1.00;;;27.60;44.30;;;;;;5014134;28;20211;-70
2022/06/08 08:55:53;;;;;;;1.40;1.30;;;27.50;44.20;;;;;;5028939;28;20226;-70
2022/06/08 08:58:21;;;;;;;1.13;1.13;;;27.50;44.10;;;;;;5028831;28;20208;-70
2022/06/08 09:00:50;;;;;;;1.20;1.10;;;27.50;44.20;;;;;;5012460;28;20200;-70
2022/06/08 09:03:27;;;;;;;1.00;1.00;;;27.50;44.80;;;;;;5013483;28;20677;-70
2022/06/08 09:05:57;;;;;;;1.30;1.20;;;27.50;44.30;;;;;;5028836;28;20556;-70
2022/06/08 09:08:25;;;;;;;1.10;1.10;;;27.40;44.40;;;;;;5012366;28;20206;-70
2022/06/08 09:10:57;;;;;;;1.02;1.00;;;27.40;44.40;;;;;;5028943;28;20200;-70
2022/06/08 09:13:26;;;;;;;1.20;1.10;;;27.40;44.50;;;;;;5012271;28;20216;-70
2022/06/08 09:15:56;;;;;;;1.25;1.10;;;27.40;44.60;;;;;;5012486;28;20200;-70
2022/06/08 09:18:31;;;;;;;1.10;1.00;;;27.20;44.70;;;;;;5028807;28;20200;-70
2022/06/08 09:20:58;;;;;;;1.20;1.10;;;27.20;45.50;;;;;;5012665;28;20195;-70
2022/06/08 09:23:38;;;;;;;0.82;0.82;;;27.20;44.80;;;;;;5012121;28;20219;-70
2022/06/08 09:26:09;;;;;;;0.82;0.82;;;27.20;44.70;;;;;;5012212;28;20291;-70
2022/06/08 09:28:36;;;;;;;1.02;1.02;;;27.30;44.70;;;;;;5015719;28;20235;-70
2022/06/08 09:31:03;;;;;;;1.25;1.20;;;27.30;44.60;;;;;;5032582;28;20195;-70
2022/06/08 09:33:33;;;;;;;1.10;1.00;;;27.40;44.50;;;;;;5032629;28;20212;-70
2022/06/08 09:36:02;;;;;;;1.38;1.27;;;27.40;44.50;;;;;;5032599;28;20228;-70
2022/06/08 09:38:35;;;;;;;1.35;1.08;;;27.40;44.50;;;;;;5016109;28;20266;-70
2022/06/08 09:41:08;;;;;;;1.55;1.17;;;27.40;44.40;;;;;;5016395;28;20230;-70
2022/06/08 09:43:48;;;;;;;1.13;1.02;;;27.40;44.40;;;;;;5016179;28;20307;-70
2022/06/08 09:46:17;;;;;;;1.63;1.02;;;27.40;44.40;;;;;;5017538;28;20652;-70
2022/06/08 09:52:10;;;;;;;1.23;1.13;;;27.40;44.50;;;;;;5032407;28;20184;-70
2022/06/08 09:54:44;;;;;;;1.08;1.00;;;27.30;44.50;;;;;;4984261;28;20196;-70
2022/06/08 09:57:43;;;;;;;1.20;1.10;;;27.30;44.50;;;;;;5016866;28;20203;-70
2022/06/08 10:00:21;;;;;;;1.38;1.10;;;27.30;44.50;;;;;;5000956;28;20227;-70
2022/06/08 10:02:58;;;;;;;1.75;1.08;;;27.30;44.60;;;;;;5015443;28;20716;-70
2022/06/08 10:05:29;;;;;;;1.10;1.00;;;27.30;44.50;;;;;;5015596;28;20203;-70
2022/06/08 10:08:06;;;;;;;1.17;1.10;;;27.20;44.60;;;;;;5015490;28;20196;-70
2022/06/08 10:10:35;;;;;;;0.90;0.90;;;27.20;44.80;;;;;;5016547;28;20211;-70
2022/06/08 10:13:05;;;;;;;1.13;1.00;;;27.10;45.00;;;;;;5016844;28;20286;-70
2022/06/08 10:15:34;;;;;;;1.00;1.00;;;27.00;45.20;;;;;;5015809;28;20206;-70
2022/06/08 10:18:06;;;;;;;1.20;1.08;;;26.90;45.30;;;;;;5031906;28;20196;-71
2022/06/08 10:20:37;;;;;;;1.00;1.00;;;26.80;45.60;;;;;;5031788;28;20191;-70
2022/06/08 10:23:12;;;;;;;1.00;1.00;;;26.80;45.70;;;;;;5015097;28;20274;-71
2022/06/08 10:25:42;;;;;;;1.17;0.95;;;26.70;45.80;;;;;;5015245;28;20205;-70
2022/06/08 10:28:13;;;;;;;1.05;1.00;;;26.70;45.80;;;;;;5015210;28;20200;-70
2022/06/08 10:30:42;;;;;;;1.77;1.10;;;26.60;46.00;;;;;;5016682;28;20183;-70
2022/06/08 10:33:13;;;;;;;0.90;0.90;;;26.60;46.00;;;;;;5015048;28;20216;-70
2022/06/08 10:35:42;;;;;;;1.17;1.15;;;26.60;46.20;;;;;;5015279;28;20203;-70
2022/06/08 10:38:17;;;;;;;1.00;1.00;;;26.50;46.10;;;;;;5015096;28;20196;-70
2022/06/08 10:40:52;;;;;;;1.20;1.10;;;26.50;46.10;;;;;;5014515;28;20192;-70
2022/06/08 10:43:21;;;;;;;0.82;0.82;;;26.60;46.20;;;;;;5014905;28;20226;-70
2022/06/08 10:45:53;;;;;;;1.30;1.17;;;26.60;46.20;;;;;;5031420;28;20208;-70
2022/06/08 10:48:31;;;;;;;1.10;1.00;;;26.60;46.20;;;;;;5016272;28;20641;-70
2022/06/08 10:51:41;;;;;;;0.98;0.98;;;26.60;46.10;;;;;;5014847;28;20553;-70
2022/06/08 10:54:55;;;;;;;1.17;1.13;;;26.60;46.20;;;;;;5000240;28;20216;-70
2022/06/08 10:57:42;;;;;;;1.17;1.00;;;26.60;46.20;;;;;;5014769;28;20235;-70
2022/06/08 11:00:44;;;;;;;1.13;1.10;;;26.50;46.10;;;;;;5014598;28;20546;-70
2022/06/08 11:03:22;;;;;;;1.08;1.00;;;26.50;46.20;;;;;;5031458;28;20601;-70
2022/06/08 11:05:49;;;;;;;1.30;1.02;;;26.40;46.30;;;;;;5014798;28;20184;-70
2022/06/08 11:08:19;;;;;;;1.20;1.10;;;26.40;47.00;;;;;;5016126;28;20188;-71
2022/06/08 11:10:54;;;;;;;1.00;1.00;;;26.30;46.40;;;;;;5016127;28;20192;-70
2022/06/08 11:13:30;;;;;;;1.13;1.10;;;26.30;46.60;;;;;;5014415;28;20753;-70
2022/06/08 11:16:06;;;;;;;1.00;1.00;;;26.30;46.70;;;;;;5014344;28;20664;-70
2022/06/08 11:18:36;;;;;;;0.90;0.90;;;26.30;46.70;;;;;;5030995;28;20192;-70
2022/06/08 11:21:27;;;;;;;1.00;1.00;;;26.30;46.70;;;;;;5031114;28;20637;-70
2022/06/08 11:23:56;;;;;;;0.90;0.90;;;26.30;46.80;;;;;;5010798;28;20228;-70
2022/06/08 11:26:45;;;;;;;1.20;1.10;;;26.20;46.80;;;;;;5030761;28;20207;-70
2022/06/08 11:29:49;;;;;;;0.88;0.88;;;26.20;47.00;;;;;;5015314;28;20633;-70
2022/06/08 11:32:29;;;;;;;1.20;1.10;;;26.10;47.10;;;;;;5004610;28;20274;-70
2022/06/08 11:35:03;;;;;;;1.00;1.00;;;26.10;47.20;;;;;;5035585;28;20196;-70
2022/06/08 11:37:35;;;;;;;1.13;1.10;;;26.10;47.40;;;;;;5021800;28;20267;-70
2022/06/08 11:40:04;;;;;;;0.88;0.88;;;26.10;47.40;;;;;;5021048;28;20223;-70
2022/06/08 11:42:33;;;;;;;1.00;1.00;;;26.10;47.40;;;;;;5014949;28;20220;-67
2022/06/08 11:45:17;;;;;;;1.63;1.00;;;26.10;47.10;;;;;;5013773;28;20307;-69
2022/06/08 11:47:50;;;;;;;2.85;1.20;;;26.10;47.20;;;;;;5030223;28;20661;-67
2022/06/08 11:50:19;;;;;;;2.00;1.10;;;26.10;47.30;;;;;;5029893;28;20253;-66
2022/06/08 11:52:48;;;;;;;1.30;1.02;;;26.10;47.40;;;;;;5030751;28;20234;-67
2022/06/08 11:55:19;;;;;;;1.25;1.17;;;26.10;47.60;;;;;;5014926;28;20567;-66
2022/06/08 11:57:53;;;;;;;1.30;1.20;;;26.10;47.80;;;;;;5030610;28;20255;-67
2022/06/08 12:00:37;;;;;;;1.83;1.00;;;26.20;47.60;;;;;;5040393;23;20180;-71
2022/06/08 12:03:19;;;;;;;1.05;1.00;;;26.20;48.00;;;;;;4992182;28;20212;-72
2022/06/08 12:05:47;;;;;;;1.25;1.15;;;26.20;48.10;;;;;;5100154;23;20235;-71
2022/06/08 12:08:16;;;;;;;1.02;1.00;;;26.20;47.90;;;;;;5108703;23;20228;-71
2022/06/08 12:10:43;;;;;;;1.10;1.00;;;26.20;47.80;;;;;;5013368;28;20255;-72
2022/06/08 12:13:18;;;;;;;1.15;1.05;;;26.20;47.90;;;;;;5014388;28;20198;-72
2022/06/08 12:15:48;;;;;;;1.13;1.10;;;26.20;48.00;;;;;;5014541;28;20180;-72
2022/06/08 12:18:30;;;;;;;1.20;1.20;;;26.20;48.00;;;;;;5015264;28;20188;-72
2022/06/08 12:21:03;;;;;;;1.00;1.00;;;26.20;48.00;;;;;;5012873;28;20224;-72
2022/06/08 12:23:40;;;;;;;1.35;1.00;;;26.20;48.00;;;;;;5014105;28;20255;-72
2022/06/08 12:26:18;;;;;;;1.00;0.90;;;26.10;47.90;;;;;;5014225;28;20180;-72
2022/06/08 12:28:47;;;;;;;0.90;0.90;;;26.10;47.90;;;;;;5012865;28;20568;-71
2022/06/08 12:31:25;;;;;;;1.20;1.00;;;26.10;47.90;;;;;;5012661;28;20231;-71
2022/06/08 12:33:53;;;;;;;1.02;0.93;;;26.10;47.90;;;;;;5012868;28;20219;-72
2022/06/08 12:36:22;;;;;;;1.13;1.10;;;26.10;47.80;;;;;;5012715;28;20226;-71
2022/06/08 12:39:00;;;;;;;1.67;1.00;;;26.10;47.90;;;;;;5013899;28;20192;-71
2022/06/08 12:41:39;;;;;;;0.88;0.88;;;26.10;47.90;;;;;;5012566;28;20237;-71
2022/06/08 12:44:08;;;;;;;0.90;0.90;;;26.10;47.80;;;;;;5012682;28;20227;-71
2022/06/08 12:46:36;;;;;;;1.00;1.00;;;26.10;47.80;;;;;;5013321;28;20196;-71
2022/06/08 12:49:15;;;;;;;1.40;0.98;;;26.10;48.50;;;;;;5012536;28;20200;-72
2022/06/08 12:51:45;;;;;;;1.00;1.00;;;26.10;48.50;;;;;;5012368;28;20212;-72
2022/06/08 12:54:15;;;;;;;1.10;1.00;;;26.10;47.80;;;;;;5012431;28;20196;-71
2022/06/08 12:56:42;;;;;;;0.80;0.80;;;26.10;47.90;;;;;;5013719;28;20203;-72
2022/06/08 12:59:10;;;;;;;1.20;1.10;;;26.10;47.90;;;;;;5012683;28;20290;-72
2022/06/08 13:01:36;;;;;;;1.38;0.90;;;26.00;47.80;;;;;;5013414;28;20208;-71
2022/06/08 13:04:04;;;;;;;1.25;1.10;;;26.00;47.80;;;;;;5013597;28;20219;-71
2022/06/08 13:06:32;;;;;;;0.90;0.90;;;26.10;47.90;;;;;;5012531;28;20204;-71
2022/06/08 13:09:00;;;;;;;1.25;1.15;;;26.10;47.90;;;;;;5012235;28;20204;-71
2022/06/08 13:11:27;;;;;;;1.20;1.10;;;26.10;47.90;;;;;;5012283;28;20723;-71
2022/06/08 13:13:55;;;;;;;1.10;1.10;;;26.10;47.80;;;;;;5013502;28;20243;-71
2022/06/08 13:16:24;;;;;;;1.20;1.10;;;26.10;47.80;;;;;;5013398;28;20243;-71
2022/06/08 13:18:52;;;;;;;1.40;1.20;;;26.00;47.70;;;;;;5012462;28;20239;-72
2022/06/08 13:21:19;;;;;;;1.10;1.10;;;26.10;47.80;;;;;;5012103;28;20270;-71
2022/06/08 13:23:48;;;;;;;1.10;1.10;;;26.10;47.80;;;;;;5012394;28;20661;-72